sensor_id;sensor_type;location;lat;lon;timestamp;P1;durP1;ratioP1;P2;durP2;ratioP2
17197;SDS011;8715;51.010;6.812;2024-01-10T00:00:16;321.08;;;307.88;;
17197;SDS011;8715;51.010;6.812;2024-01-10T00:03:01;310.23;;;296.90;;
17197;SDS011;8715;51.010;6.812;2024-01-10T00:05:47;312.65;;;299.05;;
17197;SDS011;8715;51.010;6.812;2024-01-10T00:08:33;337.02;;;322.90;;
17197;SDS011;8715;51.010;6.812;2024-01-10T00:11:18;321.10;;;307.55;;
17197;SDS011;8715;51.010;6.812;2024-01-10T00:14:03;320.90;;;307.00;;
17197;SDS011;8715;51.010;6.812;2024-01-10T00:16:51;329.65;;;315.70;;
17197;SDS011;8715;51.010;6.812;2024-01-10T00:19:36;317.02;;;303.33;;
17197;SDS011;8715;51.010;6.812;2024-01-10T00:22:22;293.83;;;280.88;;
17197;SDS011;8715;51.010;6.812;2024-01-10T00:25:08;311.45;;;297.77;;
17197;SDS011;8715;51.010;6.812;2024-01-10T00:27:53;312.05;;;298.40;;
17197;SDS011;8715;51.010;6.812;2024-01-10T00:30:38;310.33;;;296.40;;
17197;SDS011;8715;51.010;6.812;2024-01-10T00:33:23;308.33;;;295.10;;
17197;SDS011;8715;51.010;6.812;2024-01-10T00:36:08;306.17;;;292.60;;
17197;SDS011;8715;51.010;6.812;2024-01-10T00:38:53;306.60;;;293.85;;
17197;SDS011;8715;51.010;6.812;2024-01-10T00:41:40;304.38;;;291.33;;
17197;SDS011;8715;51.010;6.812;2024-01-10T00:44:25;317.23;;;303.92;;
17197;SDS011;8715;51.010;6.812;2024-01-10T00:47:11;292.67;;;279.98;;
17197;SDS011;8715;51.010;6.812;2024-01-10T00:49:56;287.50;;;275.33;;
17197;SDS011;8715;51.010;6.812;2024-01-10T00:52:41;301.40;;;288.63;;
17197;SDS011;8715;51.010;6.812;2024-01-10T00:55:26;295.00;;;282.63;;
17197;SDS011;8715;51.010;6.812;2024-01-10T00:58:13;297.92;;;285.20;;
17197;SDS011;8715;51.010;6.812;2024-01-10T01:00:58;287.35;;;274.80;;
17197;SDS011;8715;51.010;6.812;2024-01-10T01:03:43;320.33;;;306.45;;
17197;SDS011;8715;51.010;6.812;2024-01-10T01:06:31;299.35;;;286.15;;
17197;SDS011;8715;51.010;6.812;2024-01-10T01:09:16;292.00;;;279.52;;
17197;SDS011;8715;51.010;6.812;2024-01-10T01:12:01;300.15;;;287.58;;
17197;SDS011;8715;51.010;6.812;2024-01-10T01:14:48;296.00;;;283.27;;
17197;SDS011;8715;51.010;6.812;2024-01-10T01:17:33;309.70;;;296.77;;
17197;SDS011;8715;51.010;6.812;2024-01-10T01:20:19;285.55;;;273.20;;
17197;SDS011;8715;51.010;6.812;2024-01-10T01:23:04;297.42;;;284.52;;
17197;SDS011;8715;51.010;6.812;2024-01-10T01:25:49;289.98;;;277.13;;
17197;SDS011;8715;51.010;6.812;2024-01-10T01:28:34;284.05;;;272.15;;
17197;SDS011;8715;51.010;6.812;2024-01-10T01:31:21;286.38;;;273.85;;
17197;SDS011;8715;51.010;6.812;2024-01-10T01:34:06;282.83;;;270.45;;
17197;SDS011;8715;51.010;6.812;2024-01-10T01:36:51;286.67;;;274.70;;
17197;SDS011;8715;51.010;6.812;2024-01-10T01:39:36;292.83;;;280.50;;
17197;SDS011;8715;51.010;6.812;2024-01-10T01:42:21;278.10;;;266.08;;
17197;SDS011;8715;51.010;6.812;2024-01-10T01:45:06;277.95;;;266.17;;
17197;SDS011;8715;51.010;6.812;2024-01-10T01:47:53;281.45;;;269.45;;
17197;SDS011;8715;51.010;6.812;2024-01-10T01:50:38;269.17;;;258.00;;
17197;SDS011;8715;51.010;6.812;2024-01-10T01:53:24;287.02;;;274.65;;
17197;SDS011;8715;51.010;6.812;2024-01-10T01:56:09;284.67;;;272.80;;
17197;SDS011;8715;51.010;6.812;2024-01-10T01:58:54;275.17;;;263.10;;
17197;SDS011;8715;51.010;6.812;2024-01-10T02:01:40;279.05;;;267.30;;
17197;SDS011;8715;51.010;6.812;2024-01-10T02:04:26;263.73;;;252.38;;
17197;SDS011;8715;51.010;6.812;2024-01-10T02:07:11;275.88;;;264.17;;
17197;SDS011;8715;51.010;6.812;2024-01-10T02:09:57;276.58;;;264.92;;
17197;SDS011;8715;51.010;6.812;2024-01-10T02:12:42;257.90;;;246.77;;
17197;SDS011;8715;51.010;6.812;2024-01-10T02:15:27;272.65;;;260.83;;
17197;SDS011;8715;51.010;6.812;2024-01-10T02:18:13;277.80;;;266.35;;
17197;SDS011;8715;51.010;6.812;2024-01-10T02:21:00;270.70;;;258.98;;
17197;SDS011;8715;51.010;6.812;2024-01-10T02:23:45;283.60;;;271.50;;
17197;SDS011;8715;51.010;6.812;2024-01-10T02:26:31;296.95;;;284.40;;
17197;SDS011;8715;51.010;6.812;2024-01-10T02:29:16;276.33;;;264.38;;
17197;SDS011;8715;51.010;6.812;2024-01-10T02:32:01;273.77;;;261.90;;
17197;SDS011;8715;51.010;6.812;2024-01-10T02:34:47;277.08;;;264.80;;
17197;SDS011;8715;51.010;6.812;2024-01-10T02:37:32;264.90;;;252.93;;
17197;SDS011;8715;51.010;6.812;2024-01-10T02:40:17;259.63;;;248.57;;
17197;SDS011;8715;51.010;6.812;2024-01-10T02:43:04;265.75;;;254.27;;
17197;SDS011;8715;51.010;6.812;2024-01-10T02:45:50;250.65;;;239.77;;
17197;SDS011;8715;51.010;6.812;2024-01-10T02:48:35;248.43;;;237.60;;
17197;SDS011;8715;51.010;6.812;2024-01-10T02:51:21;265.30;;;253.57;;
17197;SDS011;8715;51.010;6.812;2024-01-10T02:54:06;268.90;;;257.10;;
17197;SDS011;8715;51.010;6.812;2024-01-10T02:56:51;263.83;;;252.55;;
17197;SDS011;8715;51.010;6.812;2024-01-10T02:59:38;251.93;;;241.07;;
17197;SDS011;8715;51.010;6.812;2024-01-10T03:02:23;256.85;;;245.70;;
17197;SDS011;8715;51.010;6.812;2024-01-10T03:05:08;256.35;;;244.82;;
17197;SDS011;8715;51.010;6.812;2024-01-10T03:07:53;258.33;;;247.20;;
17197;SDS011;8715;51.010;6.812;2024-01-10T03:10:38;251.73;;;241.05;;
17197;SDS011;8715;51.010;6.812;2024-01-10T03:13:23;268.60;;;257.13;;
17197;SDS011;8715;51.010;6.812;2024-01-10T03:16:10;256.90;;;245.63;;
17197;SDS011;8715;51.010;6.812;2024-01-10T03:18:55;263.10;;;252.02;;
17197;SDS011;8715;51.010;6.812;2024-01-10T03:21:40;243.27;;;232.63;;
17197;SDS011;8715;51.010;6.812;2024-01-10T03:24:25;236.90;;;226.60;;
17197;SDS011;8715;51.010;6.812;2024-01-10T03:27:11;241.05;;;230.48;;
17197;SDS011;8715;51.010;6.812;2024-01-10T03:29:56;232.82;;;222.15;;
17197;SDS011;8715;51.010;6.812;2024-01-10T03:32:42;260.10;;;248.70;;
17197;SDS011;8715;51.010;6.812;2024-01-10T03:35:28;257.95;;;246.52;;
17197;SDS011;8715;51.010;6.812;2024-01-10T03:38:13;256.08;;;244.98;;
17197;SDS011;8715;51.010;6.812;2024-01-10T03:40:59;259.65;;;248.10;;
17197;SDS011;8715;51.010;6.812;2024-01-10T03:43:44;265.05;;;253.70;;
17197;SDS011;8715;51.010;6.812;2024-01-10T03:46:29;246.52;;;235.63;;
17197;SDS011;8715;51.010;6.812;2024-01-10T03:49:16;245.93;;;235.25;;
17197;SDS011;8715;51.010;6.812;2024-01-10T03:52:01;239.80;;;229.40;;
17197;SDS011;8715;51.010;6.812;2024-01-10T03:54:46;230.43;;;220.10;;
17197;SDS011;8715;51.010;6.812;2024-01-10T03:57:31;240.40;;;229.82;;
17197;SDS011;8715;51.010;6.812;2024-01-10T04:00:16;240.00;;;229.50;;
17197;SDS011;8715;51.010;6.812;2024-01-10T04:03:01;258.55;;;246.82;;
17197;SDS011;8715;51.010;6.812;2024-01-10T04:05:48;233.90;;;223.57;;
17197;SDS011;8715;51.010;6.812;2024-01-10T04:08:33;228.30;;;218.52;;
17197;SDS011;8715;51.010;6.812;2024-01-10T04:11:19;233.20;;;222.55;;
17197;SDS011;8715;51.010;6.812;2024-01-10T04:14:04;244.20;;;233.73;;
17197;SDS011;8715;51.010;6.812;2024-01-10T04:16:50;234.55;;;224.00;;
17197;SDS011;8715;51.010;6.812;2024-01-10T04:19:35;235.77;;;225.55;;
17197;SDS011;8715;51.010;6.812;2024-01-10T04:22:23;244.52;;;233.27;;
17197;SDS011;8715;51.010;6.812;2024-01-10T04:25:08;233.27;;;222.82;;
17197;SDS011;8715;51.010;6.812;2024-01-10T04:27:53;252.40;;;240.98;;
17197;SDS011;8715;51.010;6.812;2024-01-10T04:30:39;253.88;;;242.43;;
17197;SDS011;8715;51.010;6.812;2024-01-10T04:33:24;249.35;;;238.48;;
17197;SDS011;8715;51.010;6.812;2024-01-10T04:36:09;237.13;;;226.38;;
17197;SDS011;8715;51.010;6.812;2024-01-10T04:38:55;239.05;;;228.65;;
17197;SDS011;8715;51.010;6.812;2024-01-10T04:41:40;250.15;;;239.15;;
17197;SDS011;8715;51.010;6.812;2024-01-10T04:47:24;246.10;;;235.48;;
17197;SDS011;8715;51.010;6.812;2024-01-10T04:50:12;250.90;;;239.70;;
17197;SDS011;8715;51.010;6.812;2024-01-10T04:52:57;242.95;;;232.55;;
17197;SDS011;8715;51.010;6.812;2024-01-10T04:55:44;244.15;;;233.38;;
17197;SDS011;8715;51.010;6.812;2024-01-10T04:58:29;240.35;;;229.75;;
17197;SDS011;8715;51.010;6.812;2024-01-10T05:01:16;225.70;;;215.65;;
17197;SDS011;8715;51.010;6.812;2024-01-10T05:04:01;262.05;;;250.88;;
17197;SDS011;8715;51.010;6.812;2024-01-10T05:06:46;239.13;;;228.88;;
17197;SDS011;8715;51.010;6.812;2024-01-10T05:09:31;243.73;;;232.52;;
17197;SDS011;8715;51.010;6.812;2024-01-10T05:12:17;240.23;;;229.52;;
17197;SDS011;8715;51.010;6.812;2024-01-10T05:15:03;230.95;;;220.48;;
17197;SDS011;8715;51.010;6.812;2024-01-10T05:17:48;238.13;;;227.90;;
17197;SDS011;8715;51.010;6.812;2024-01-10T05:20:33;231.57;;;221.32;;
17197;SDS011;8715;51.010;6.812;2024-01-10T05:23:18;239.40;;;229.00;;
17197;SDS011;8715;51.010;6.812;2024-01-10T05:26:03;227.45;;;217.43;;
17197;SDS011;8715;51.010;6.812;2024-01-10T05:28:49;245.90;;;235.32;;
17197;SDS011;8715;51.010;6.812;2024-01-10T05:31:34;215.98;;;206.55;;
17197;SDS011;8715;51.010;6.812;2024-01-10T05:34:20;227.32;;;216.75;;
17197;SDS011;8715;51.010;6.812;2024-01-10T05:37:04;227.10;;;216.45;;
17197;SDS011;8715;51.010;6.812;2024-01-10T05:39:50;249.75;;;238.50;;
17197;SDS011;8715;51.010;6.812;2024-01-10T05:42:34;239.38;;;228.20;;
17197;SDS011;8715;51.010;6.812;2024-01-10T05:45:23;220.20;;;210.10;;
17197;SDS011;8715;51.010;6.812;2024-01-10T05:48:08;240.40;;;229.95;;
17197;SDS011;8715;51.010;6.812;2024-01-10T05:50:53;218.95;;;208.65;;
17197;SDS011;8715;51.010;6.812;2024-01-10T05:53:38;235.38;;;225.10;;
17197;SDS011;8715;51.010;6.812;2024-01-10T05:56:23;220.27;;;210.40;;
17197;SDS011;8715;51.010;6.812;2024-01-10T05:59:08;220.52;;;210.88;;
17197;SDS011;8715;51.010;6.812;2024-01-10T06:01:56;232.23;;;221.68;;
17197;SDS011;8715;51.010;6.812;2024-01-10T06:04:42;226.30;;;215.45;;
17197;SDS011;8715;51.010;6.812;2024-01-10T06:07:27;225.48;;;215.13;;
17197;SDS011;8715;51.010;6.812;2024-01-10T06:10:12;222.85;;;213.07;;
17197;SDS011;8715;51.010;6.812;2024-01-10T06:12:57;229.85;;;219.57;;
17197;SDS011;8715;51.010;6.812;2024-01-10T06:15:42;222.23;;;212.35;;
17197;SDS011;8715;51.010;6.812;2024-01-10T06:18:29;236.77;;;226.43;;
17197;SDS011;8715;51.010;6.812;2024-01-10T06:21:14;236.32;;;225.68;;
17197;SDS011;8715;51.010;6.812;2024-01-10T06:23:59;240.15;;;229.45;;
17197;SDS011;8715;51.010;6.812;2024-01-10T06:26:44;234.50;;;224.30;;
17197;SDS011;8715;51.010;6.812;2024-01-10T06:29:29;231.40;;;220.90;;
17197;SDS011;8715;51.010;6.812;2024-01-10T06:32:15;241.63;;;231.15;;
17197;SDS011;8715;51.010;6.812;2024-01-10T06:35:01;248.77;;;237.23;;
17197;SDS011;8715;51.010;6.812;2024-01-10T06:37:48;227.43;;;216.88;;
17197;SDS011;8715;51.010;6.812;2024-01-10T06:40:33;216.45;;;206.35;;
17197;SDS011;8715;51.010;6.812;2024-01-10T06:43:18;230.52;;;220.40;;
17197;SDS011;8715;51.010;6.812;2024-01-10T06:46:04;221.25;;;210.45;;
17197;SDS011;8715;51.010;6.812;2024-01-10T06:48:49;224.32;;;214.50;;
17197;SDS011;8715;51.010;6.812;2024-01-10T06:51:36;224.45;;;213.70;;
17197;SDS011;8715;51.010;6.812;2024-01-10T06:54:21;218.35;;;208.20;;
17197;SDS011;8715;51.010;6.812;2024-01-10T06:57:06;234.05;;;223.70;;
17197;SDS011;8715;51.010;6.812;2024-01-10T06:59:51;230.68;;;220.40;;
17197;SDS011;8715;51.010;6.812;2024-01-10T07:02:36;214.43;;;204.80;;
17197;SDS011;8715;51.010;6.812;2024-01-10T07:05:22;226.55;;;216.30;;
17197;SDS011;8715;51.010;6.812;2024-01-10T07:08:08;233.75;;;223.52;;
17197;SDS011;8715;51.010;6.812;2024-01-10T07:10:53;244.18;;;233.57;;
17197;SDS011;8715;51.010;6.812;2024-01-10T07:13:40;246.13;;;235.30;;
17197;SDS011;8715;51.010;6.812;2024-01-10T07:16:25;228.57;;;218.25;;
17197;SDS011;8715;51.010;6.812;2024-01-10T07:19:10;239.85;;;229.30;;
17197;SDS011;8715;51.010;6.812;2024-01-10T07:21:57;225.30;;;214.50;;
17197;SDS011;8715;51.010;6.812;2024-01-10T07:24:43;235.77;;;225.23;;
17197;SDS011;8715;51.010;6.812;2024-01-10T07:27:30;225.23;;;215.10;;
17197;SDS011;8715;51.010;6.812;2024-01-10T07:30:15;252.50;;;240.85;;
17197;SDS011;8715;51.010;6.812;2024-01-10T07:33:00;256.63;;;244.60;;
17197;SDS011;8715;51.010;6.812;2024-01-10T07:35:45;235.07;;;224.55;;
17197;SDS011;8715;51.010;6.812;2024-01-10T07:38:30;239.73;;;229.52;;
17197;SDS011;8715;51.010;6.812;2024-01-10T07:41:17;236.70;;;225.75;;
17197;SDS011;8715;51.010;6.812;2024-01-10T07:44:02;236.65;;;226.27;;
17197;SDS011;8715;51.010;6.812;2024-01-10T07:46:47;244.73;;;233.85;;
17197;SDS011;8715;51.010;6.812;2024-01-10T07:49:32;223.85;;;213.15;;
17197;SDS011;8715;51.010;6.812;2024-01-10T07:52:17;237.95;;;227.57;;
17197;SDS011;8715;51.010;6.812;2024-01-10T07:55:03;229.75;;;219.40;;
17197;SDS011;8715;51.010;6.812;2024-01-10T07:57:49;234.82;;;224.05;;
17197;SDS011;8715;51.010;6.812;2024-01-10T08:00:35;236.55;;;226.13;;
17197;SDS011;8715;51.010;6.812;2024-01-10T08:03:20;231.75;;;220.73;;
17197;SDS011;8715;51.010;6.812;2024-01-10T08:06:05;225.13;;;215.05;;
17197;SDS011;8715;51.010;6.812;2024-01-10T08:08:51;259.17;;;247.25;;
17197;SDS011;8715;51.010;6.812;2024-01-10T08:11:36;238.45;;;226.40;;
17197;SDS011;8715;51.010;6.812;2024-01-10T08:14:22;253.10;;;241.68;;
17197;SDS011;8715;51.010;6.812;2024-01-10T08:17:08;250.32;;;239.07;;
17197;SDS011;8715;51.010;6.812;2024-01-10T08:19:53;248.85;;;237.43;;
17197;SDS011;8715;51.010;6.812;2024-01-10T08:22:38;234.23;;;223.57;;
17197;SDS011;8715;51.010;6.812;2024-01-10T08:25:24;260.67;;;248.98;;
17197;SDS011;8715;51.010;6.812;2024-01-10T08:28:09;238.93;;;228.43;;
17197;SDS011;8715;51.010;6.812;2024-01-10T08:30:56;252.00;;;240.55;;
17197;SDS011;8715;51.010;6.812;2024-01-10T08:33:42;252.20;;;240.90;;
17197;SDS011;8715;51.010;6.812;2024-01-10T08:36:27;243.85;;;232.82;;
17197;SDS011;8715;51.010;6.812;2024-01-10T08:39:12;252.65;;;241.27;;
17197;SDS011;8715;51.010;6.812;2024-01-10T08:41:57;254.85;;;242.85;;
17197;SDS011;8715;51.010;6.812;2024-01-10T08:44:42;275.50;;;263.70;;
17197;SDS011;8715;51.010;6.812;2024-01-10T08:47:29;272.65;;;260.08;;
17197;SDS011;8715;51.010;6.812;2024-01-10T08:50:16;269.35;;;257.85;;
17197;SDS011;8715;51.010;6.812;2024-01-10T08:53:01;271.73;;;258.52;;
17197;SDS011;8715;51.010;6.812;2024-01-10T08:55:48;259.98;;;248.63;;
17197;SDS011;8715;51.010;6.812;2024-01-10T08:58:33;269.38;;;257.27;;
17197;SDS011;8715;51.010;6.812;2024-01-10T09:01:18;267.67;;;255.90;;
17197;SDS011;8715;51.010;6.812;2024-01-10T09:04:05;267.90;;;255.52;;
17197;SDS011;8715;51.010;6.812;2024-01-10T09:06:50;258.48;;;247.20;;
17197;SDS011;8715;51.010;6.812;2024-01-10T09:09:35;281.10;;;268.65;;
17197;SDS011;8715;51.010;6.812;2024-01-10T09:12:20;278.30;;;265.73;;
17197;SDS011;8715;51.010;6.812;2024-01-10T09:15:05;278.45;;;265.52;;
17197;SDS011;8715;51.010;6.812;2024-01-10T09:17:52;271.77;;;259.23;;
17197;SDS011;8715;51.010;6.812;2024-01-10T09:20:38;293.98;;;280.92;;
17197;SDS011;8715;51.010;6.812;2024-01-10T09:23:23;277.73;;;264.98;;
17197;SDS011;8715;51.010;6.812;2024-01-10T09:26:08;279.60;;;267.65;;
17197;SDS011;8715;51.010;6.812;2024-01-10T09:28:54;279.17;;;266.63;;
17197;SDS011;8715;51.010;6.812;2024-01-10T09:31:38;281.00;;;268.88;;
17197;SDS011;8715;51.010;6.812;2024-01-10T09:34:24;291.27;;;278.73;;
17197;SDS011;8715;51.010;6.812;2024-01-10T09:37:10;297.95;;;284.73;;
17197;SDS011;8715;51.010;6.812;2024-01-10T09:39:55;306.80;;;293.75;;
17197;SDS011;8715;51.010;6.812;2024-01-10T09:42:40;293.00;;;280.10;;
17197;SDS011;8715;51.010;6.812;2024-01-10T09:45:25;310.80;;;297.10;;
17197;SDS011;8715;51.010;6.812;2024-01-10T09:48:11;328.38;;;313.95;;
17197;SDS011;8715;51.010;6.812;2024-01-10T09:50:56;341.45;;;326.58;;
17197;SDS011;8715;51.010;6.812;2024-01-10T09:53:44;322.08;;;308.02;;
17197;SDS011;8715;51.010;6.812;2024-01-10T09:56:29;350.45;;;335.35;;
17197;SDS011;8715;51.010;6.812;2024-01-10T09:59:14;341.23;;;326.88;;
17197;SDS011;8715;51.010;6.812;2024-01-10T10:01:59;347.80;;;332.55;;
17197;SDS011;8715;51.010;6.812;2024-01-10T10:04:49;357.00;;;341.45;;
17197;SDS011;8715;51.010;6.812;2024-01-10T10:07:44;346.90;;;332.13;;
17197;SDS011;8715;51.010;6.812;2024-01-10T10:10:32;370.38;;;353.95;;
17197;SDS011;8715;51.010;6.812;2024-01-10T10:13:28;361.80;;;346.20;;
17197;SDS011;8715;51.010;6.812;2024-01-10T10:18:58;355.67;;;340.38;;
17197;SDS011;8715;51.010;6.812;2024-01-10T10:21:43;368.15;;;352.10;;
17197;SDS011;8715;51.010;6.812;2024-01-10T10:24:28;392.42;;;375.23;;
17197;SDS011;8715;51.010;6.812;2024-01-10T10:27:16;374.10;;;357.45;;
17197;SDS011;8715;51.010;6.812;2024-01-10T10:30:01;398.27;;;380.45;;
17197;SDS011;8715;51.010;6.812;2024-01-10T10:32:47;385.13;;;368.83;;
17197;SDS011;8715;51.010;6.812;2024-01-10T10:35:32;375.38;;;359.55;;
17197;SDS011;8715;51.010;6.812;2024-01-10T10:38:17;398.15;;;381.05;;
17197;SDS011;8715;51.010;6.812;2024-01-10T10:41:03;388.60;;;372.25;;
17197;SDS011;8715;51.010;6.812;2024-01-10T10:43:50;372.35;;;355.73;;
17197;SDS011;8715;51.010;6.812;2024-01-10T10:46:37;398.48;;;381.80;;
17197;SDS011;8715;51.010;6.812;2024-01-10T10:49:24;411.27;;;393.27;;
17197;SDS011;8715;51.010;6.812;2024-01-10T10:52:11;411.77;;;393.95;;
17197;SDS011;8715;51.010;6.812;2024-01-10T10:54:57;406.75;;;389.20;;
17197;SDS011;8715;51.010;6.812;2024-01-10T10:57:44;419.58;;;402.45;;
17197;SDS011;8715;51.010;6.812;2024-01-10T11:00:31;433.48;;;415.17;;
17197;SDS011;8715;51.010;6.812;2024-01-10T11:03:16;416.92;;;399.08;;
17197;SDS011;8715;51.010;6.812;2024-01-10T11:06:02;419.60;;;401.15;;
17197;SDS011;8715;51.010;6.812;2024-01-10T11:08:49;413.40;;;395.35;;
17197;SDS011;8715;51.010;6.812;2024-01-10T11:11:37;429.88;;;411.65;;
17197;SDS011;8715;51.010;6.812;2024-01-10T11:14:28;419.65;;;401.98;;
17197;SDS011;8715;51.010;6.812;2024-01-10T11:17:29;416.33;;;398.40;;
17197;SDS011;8715;51.010;6.812;2024-01-10T11:20:18;435.13;;;416.88;;
17197;SDS011;8715;51.010;6.812;2024-01-10T11:23:12;420.52;;;402.83;;
17197;SDS011;8715;51.010;6.812;2024-01-10T11:26:03;440.60;;;421.95;;
17197;SDS011;8715;51.010;6.812;2024-01-10T11:28:48;423.52;;;406.05;;
17197;SDS011;8715;51.010;6.812;2024-01-10T11:31:35;440.10;;;421.10;;
17197;SDS011;8715;51.010;6.812;2024-01-10T11:34:23;460.60;;;441.42;;
17197;SDS011;8715;51.010;6.812;2024-01-10T11:37:09;469.98;;;450.35;;
17197;SDS011;8715;51.010;6.812;2024-01-10T11:39:54;438.42;;;419.75;;
17197;SDS011;8715;51.010;6.812;2024-01-10T11:42:42;470.90;;;451.23;;
17197;SDS011;8715;51.010;6.812;2024-01-10T11:45:37;459.10;;;439.77;;
17197;SDS011;8715;51.010;6.812;2024-01-10T11:48:26;494.20;;;473.65;;
17197;SDS011;8715;51.010;6.812;2024-01-10T11:51:13;471.75;;;452.33;;
17197;SDS011;8715;51.010;6.812;2024-01-10T11:53:59;479.65;;;459.70;;
17197;SDS011;8715;51.010;6.812;2024-01-10T11:56:44;486.08;;;465.60;;
17197;SDS011;8715;51.010;6.812;2024-01-10T11:59:30;483.83;;;463.27;;
17197;SDS011;8715;51.010;6.812;2024-01-10T12:02:15;486.15;;;465.65;;
17197;SDS011;8715;51.010;6.812;2024-01-10T12:05:01;481.83;;;461.90;;
17197;SDS011;8715;51.010;6.812;2024-01-10T12:07:51;478.58;;;458.85;;
17197;SDS011;8715;51.010;6.812;2024-01-10T12:10:36;502.00;;;481.40;;
17197;SDS011;8715;51.010;6.812;2024-01-10T12:13:21;497.50;;;476.17;;
17197;SDS011;8715;51.010;6.812;2024-01-10T12:16:06;516.83;;;495.48;;
17197;SDS011;8715;51.010;6.812;2024-01-10T12:18:51;496.52;;;475.58;;
17197;SDS011;8715;51.010;6.812;2024-01-10T12:21:36;524.15;;;502.27;;
17197;SDS011;8715;51.010;6.812;2024-01-10T12:24:23;504.05;;;483.38;;
17197;SDS011;8715;51.010;6.812;2024-01-10T12:27:08;504.77;;;484.13;;
17197;SDS011;8715;51.010;6.812;2024-01-10T12:29:53;512.78;;;491.60;;
17197;SDS011;8715;51.010;6.812;2024-01-10T12:32:38;508.40;;;487.27;;
17197;SDS011;8715;51.010;6.812;2024-01-10T12:35:23;532.25;;;510.33;;
17197;SDS011;8715;51.010;6.812;2024-01-10T12:38:09;544.33;;;522.28;;
17197;SDS011;8715;51.010;6.812;2024-01-10T12:40:57;489.70;;;469.77;;
17197;SDS011;8715;51.010;6.812;2024-01-10T12:43:42;536.28;;;513.47;;
17197;SDS011;8715;51.010;6.812;2024-01-10T12:46:27;556.28;;;533.47;;
17197;SDS011;8715;51.010;6.812;2024-01-10T12:49:12;552.92;;;530.42;;
17197;SDS011;8715;51.010;6.812;2024-01-10T12:51:59;544.67;;;522.03;;
17197;SDS011;8715;51.010;6.812;2024-01-10T12:54:44;557.40;;;534.30;;
17197;SDS011;8715;51.010;6.812;2024-01-10T12:57:31;559.35;;;536.45;;
17197;SDS011;8715;51.010;6.812;2024-01-10T13:00:16;559.65;;;536.78;;
17197;SDS011;8715;51.010;6.812;2024-01-10T13:03:02;565.58;;;542.38;;
17197;SDS011;8715;51.010;6.812;2024-01-10T13:05:48;563.67;;;540.95;;
17197;SDS011;8715;51.010;6.812;2024-01-10T13:08:33;563.42;;;540.50;;
17197;SDS011;8715;51.010;6.812;2024-01-10T13:11:18;548.78;;;526.17;;
17197;SDS011;8715;51.010;6.812;2024-01-10T13:14:05;550.80;;;527.97;;
17197;SDS011;8715;51.010;6.812;2024-01-10T13:16:50;557.65;;;535.22;;
17197;SDS011;8715;51.010;6.812;2024-01-10T13:19:35;564.72;;;541.70;;
17197;SDS011;8715;51.010;6.812;2024-01-10T13:22:20;581.30;;;557.03;;
17197;SDS011;8715;51.010;6.812;2024-01-10T13:25:06;573.88;;;550.10;;
17197;SDS011;8715;51.010;6.812;2024-01-10T13:27:51;591.20;;;567.10;;
17197;SDS011;8715;51.010;6.812;2024-01-10T13:30:37;598.15;;;573.67;;
17197;SDS011;8715;51.010;6.812;2024-01-10T13:33:25;578.80;;;555.22;;
17197;SDS011;8715;51.010;6.812;2024-01-10T13:36:10;589.72;;;565.72;;
17197;SDS011;8715;51.010;6.812;2024-01-10T13:38:55;603.78;;;579.03;;
17197;SDS011;8715;51.010;6.812;2024-01-10T13:41:41;609.60;;;584.92;;
17197;SDS011;8715;51.010;6.812;2024-01-10T13:44:27;594.78;;;570.55;;
17197;SDS011;8715;51.010;6.812;2024-01-10T13:47:13;603.40;;;578.63;;
17197;SDS011;8715;51.010;6.812;2024-01-10T13:49:58;589.78;;;566.05;;
17197;SDS011;8715;51.010;6.812;2024-01-10T13:52:43;592.90;;;568.90;;
17197;SDS011;8715;51.010;6.812;2024-01-10T13:55:28;587.80;;;563.65;;
17197;SDS011;8715;51.010;6.812;2024-01-10T13:58:13;572.88;;;549.53;;
17197;SDS011;8715;51.010;6.812;2024-01-10T14:00:58;587.28;;;563.22;;
17197;SDS011;8715;51.010;6.812;2024-01-10T14:03:45;579.28;;;555.83;;
17197;SDS011;8715;51.010;6.812;2024-01-10T14:06:30;583.85;;;560.08;;
17197;SDS011;8715;51.010;6.812;2024-01-10T14:09:15;590.78;;;565.92;;
17197;SDS011;8715;51.010;6.812;2024-01-10T14:12:01;615.10;;;590.03;;
17197;SDS011;8715;51.010;6.812;2024-01-10T14:14:46;614.90;;;589.42;;
17197;SDS011;8715;51.010;6.812;2024-01-10T14:17:32;597.75;;;573.22;;
17197;SDS011;8715;51.010;6.812;2024-01-10T14:20:18;606.15;;;581.38;;
17197;SDS011;8715;51.010;6.812;2024-01-10T14:23:05;600.83;;;576.10;;
17197;SDS011;8715;51.010;6.812;2024-01-10T14:25:50;600.28;;;575.53;;
17197;SDS011;8715;51.010;6.812;2024-01-10T14:28:36;598.83;;;573.97;;
17197;SDS011;8715;51.010;6.812;2024-01-10T14:31:22;567.70;;;544.03;;
17197;SDS011;8715;51.010;6.812;2024-01-10T14:34:07;583.00;;;558.28;;
17197;SDS011;8715;51.010;6.812;2024-01-10T14:36:54;595.90;;;570.85;;
17197;SDS011;8715;51.010;6.812;2024-01-10T14:39:39;584.60;;;560.40;;
17197;SDS011;8715;51.010;6.812;2024-01-10T14:42:24;607.47;;;582.45;;
17197;SDS011;8715;51.010;6.812;2024-01-10T14:45:10;596.88;;;572.38;;
17197;SDS011;8715;51.010;6.812;2024-01-10T14:47:55;610.60;;;585.47;;
17197;SDS011;8715;51.010;6.812;2024-01-10T14:50:40;596.45;;;572.15;;
17197;SDS011;8715;51.010;6.812;2024-01-10T14:53:26;613.53;;;588.13;;
17197;SDS011;8715;51.010;6.812;2024-01-10T14:56:12;580.15;;;556.53;;
17197;SDS011;8715;51.010;6.812;2024-01-10T14:58:57;600.45;;;575.72;;
17197;SDS011;8715;51.010;6.812;2024-01-10T15:01:43;585.53;;;561.10;;
17197;SDS011;8715;51.010;6.812;2024-01-10T15:04:28;593.22;;;567.88;;
17197;SDS011;8715;51.010;6.812;2024-01-10T15:07:13;593.60;;;569.22;;
17197;SDS011;8715;51.010;6.812;2024-01-10T15:10:00;584.05;;;560.38;;
17197;SDS011;8715;51.010;6.812;2024-01-10T15:12:46;597.45;;;573.03;;
17197;SDS011;8715;51.010;6.812;2024-01-10T15:15:31;595.78;;;571.38;;
17197;SDS011;8715;51.010;6.812;2024-01-10T15:18:16;606.22;;;581.42;;
17197;SDS011;8715;51.010;6.812;2024-01-10T15:21:03;586.35;;;562.33;;
17197;SDS011;8715;51.010;6.812;2024-01-10T15:23:49;584.13;;;559.78;;
17197;SDS011;8715;51.010;6.812;2024-01-10T15:26:35;575.08;;;551.08;;
17197;SDS011;8715;51.010;6.812;2024-01-10T15:29:21;587.28;;;563.13;;
17197;SDS011;8715;51.010;6.812;2024-01-10T15:32:06;602.28;;;577.38;;
17197;SDS011;8715;51.010;6.812;2024-01-10T15:34:52;579.30;;;555.08;;
17197;SDS011;8715;51.010;6.812;2024-01-10T15:37:37;574.92;;;551.03;;
17197;SDS011;8715;51.010;6.812;2024-01-10T15:40:22;581.10;;;556.38;;
17197;SDS011;8715;51.010;6.812;2024-01-10T15:43:09;587.78;;;563.00;;
17197;SDS011;8715;51.010;6.812;2024-01-10T15:45:56;561.20;;;537.75;;
17197;SDS011;8715;51.010;6.812;2024-01-10T15:48:41;588.15;;;564.53;;
17197;SDS011;8715;51.010;6.812;2024-01-10T15:51:26;589.70;;;565.08;;
17197;SDS011;8715;51.010;6.812;2024-01-10T15:54:11;563.45;;;540.38;;
17197;SDS011;8715;51.010;6.812;2024-01-10T15:56:56;566.97;;;543.67;;
17197;SDS011;8715;51.010;6.812;2024-01-10T15:59:43;559.13;;;536.40;;